sensor_id;sensor_type;location;lat;lon;timestamp;pressure;altitude;pressure_sealevel;temperature;humidity
19457;BME280;9867;48.094;11.478;2023-02-13T00:00:08;96987.88;;;6.05;100.00
19457;BME280;9867;48.094;11.478;2023-02-13T00:02:35;96994.63;;;6.27;100.00
19457;BME280;9867;48.094;11.478;2023-02-13T00:05:01;97002.28;;;5.84;100.00
19457;BME280;9867;48.094;11.478;2023-02-13T00:07:28;96990.09;;;5.99;100.00
19457;BME280;9867;48.094;11.478;2023-02-13T00:09:55;97000.34;;;6.61;100.00
19457;BME280;9867;48.094;11.478;2023-02-13T00:12:25;96994.38;;;6.51;100.00
19457;BME280;9867;48.094;11.478;2023-02-13T00:14:52;96997.16;;;6.48;100.00
19457;BME280;9867;48.094;11.478;2023-02-13T00:17:19;96989.34;;;6.61;100.00
19457;BME280;9867;48.094;11.478;2023-02-13T00:19:45;96986.81;;;6.70;100.00
19457;BME280;9867;48.094;11.478;2023-02-13T00:22:12;96987.97;;;6.57;100.00
19457;BME280;9867;48.094;11.478;2023-02-13T00:24:38;96981.75;;;6.49;100.00
19457;BME280;9867;48.094;11.478;2023-02-13T00:27:05;96986.19;;;6.15;100.00
19457;BME280;9867;48.094;11.478;2023-02-13T00:29:32;96988.41;;;5.88;100.00
19457;BME280;9867;48.094;11.478;2023-02-13T00:31:59;96983.22;;;5.90;100.00
19457;BME280;9867;48.094;11.478;2023-02-13T00:34:26;96958.59;;;6.41;100.00
19457;BME280;9867;48.094;11.478;2023-02-13T00:36:53;96983.00;;;6.55;100.00
19457;BME280;9867;48.094;11.478;2023-02-13T00:39:20;96987.56;;;6.20;100.00
19457;BME280;9867;48.094;11.478;2023-02-13T00:41:47;96974.28;;;6.16;100.00
19457;BME280;9867;48.094;11.478;2023-02-13T00:44:14;96975.28;;;5.49;100.00
19457;BME280;9867;48.094;11.478;2023-02-13T00:46:40;96974.31;;;5.07;100.00
19457;BME280;9867;48.094;11.478;2023-02-13T00:49:07;96961.00;;;5.37;100.00
19457;BME280;9867;48.094;11.478;2023-02-13T00:51:34;96970.00;;;5.85;100.00
19457;BME280;9867;48.094;11.478;2023-02-13T00:54:00;96975.69;;;5.34;100.00
19457;BME280;9867;48.094;11.478;2023-02-13T00:56:27;96969.56;;;5.25;100.00
19457;BME280;9867;48.094;11.478;2023-02-13T00:58:53;96971.66;;;5.09;100.00
19457;BME280;9867;48.094;11.478;2023-02-13T01:01:21;96987.13;;;5.39;100.00
19457;BME280;9867;48.094;11.478;2023-02-13T01:03:47;96971.13;;;5.60;100.00
19457;BME280;9867;48.094;11.478;2023-02-13T01:06:14;96970.44;;;5.46;100.00
19457;BME280;9867;48.094;11.478;2023-02-13T01:08:41;96971.34;;;4.91;100.00
19457;BME280;9867;48.094;11.478;2023-02-13T01:11:07;96964.25;;;4.72;100.00
19457;BME280;9867;48.094;11.478;2023-02-13T01:13:34;96963.91;;;5.10;100.00
19457;BME280;9867;48.094;11.478;2023-02-13T01:16:01;96966.44;;;5.22;100.00
19457;BME280;9867;48.094;11.478;2023-02-13T01:18:29;96964.59;;;5.35;100.00
19457;BME280;9867;48.094;11.478;2023-02-13T01:20:58;96967.94;;;5.35;100.00
19457;BME280;9867;48.094;11.478;2023-02-13T01:23:28;96958.97;;;5.63;100.00
19457;BME280;9867;48.094;11.478;2023-02-13T01:25:55;96964.06;;;5.52;100.00
19457;BME280;9867;48.094;11.478;2023-02-13T01:28:21;96960.66;;;5.74;100.00
19457;BME280;9867;48.094;11.478;2023-02-13T01:30:52;96962.28;;;5.32;100.00
19457;BME280;9867;48.094;11.478;2023-02-13T01:33:20;96962.56;;;5.49;100.00
19457;BME280;9867;48.094;11.478;2023-02-13T01:35:48;96957.22;;;5.64;100.00
19457;BME280;9867;48.094;11.478;2023-02-13T01:38:14;96957.09;;;5.65;100.00
19457;BME280;9867;48.094;11.478;2023-02-13T01:40:44;96946.44;;;5.28;100.00
19457;BME280;9867;48.094;11.478;2023-02-13T01:43:11;96953.34;;;5.37;100.00
19457;BME280;9867;48.094;11.478;2023-02-13T01:45:41;96962.66;;;5.59;100.00
19457;BME280;9867;48.094;11.478;2023-02-13T01:48:12;96966.56;;;5.31;100.00
19457;BME280;9867;48.094;11.478;2023-02-13T01:50:43;96960.78;;;5.29;100.00
19457;BME280;9867;48.094;11.478;2023-02-13T01:53:16;96965.84;;;5.29;100.00
19457;BME280;9867;48.094;11.478;2023-02-13T01:55:47;96966.31;;;5.34;100.00
19457;BME280;9867;48.094;11.478;2023-02-13T01:58:18;96964.75;;;5.97;100.00
19457;BME280;9867;48.094;11.478;2023-02-13T02:00:47;96953.94;;;5.30;100.00
19457;BME280;9867;48.094;11.478;2023-02-13T02:03:19;96969.56;;;5.36;100.00
19457;BME280;9867;48.094;11.478;2023-02-13T02:05:49;96960.06;;;5.70;100.00
19457;BME280;9867;48.094;11.478;2023-02-13T02:08:18;96966.13;;;5.04;100.00
19457;BME280;9867;48.094;11.478;2023-02-13T02:10:51;96959.44;;;4.69;100.00
19457;BME280;9867;48.094;11.478;2023-02-13T02:13:23;96950.06;;;4.81;100.00
19457;BME280;9867;48.094;11.478;2023-02-13T02:15:54;96975.81;;;4.99;100.00
19457;BME280;9867;48.094;11.478;2023-02-13T02:18:23;96967.13;;;5.24;100.00
19457;BME280;9867;48.094;11.478;2023-02-13T02:21:14;96961.44;;;4.31;100.00
19457;BME280;9867;48.094;11.478;2023-02-13T02:24:16;96962.28;;;4.42;100.00
19457;BME280;9867;48.094;11.478;2023-02-13T02:27:00;96957.56;;;5.05;100.00
19457;BME280;9867;48.094;11.478;2023-02-13T02:32:37;96964.94;;;5.30;100.00
19457;BME280;9867;48.094;11.478;2023-02-13T02:35:18;96963.91;;;5.10;100.00
19457;BME280;9867;48.094;11.478;2023-02-13T02:38:00;96959.63;;;5.00;100.00
19457;BME280;9867;48.094;11.478;2023-02-13T02:40:36;96966.34;;;4.78;100.00
19457;BME280;9867;48.094;11.478;2023-02-13T02:43:27;96969.56;;;5.25;100.00
19457;BME280;9867;48.094;11.478;2023-02-13T02:46:07;96950.50;;;5.20;100.00
19457;BME280;9867;48.094;11.478;2023-02-13T02:48:42;96962.97;;;5.34;100.00
19457;BME280;9867;48.094;11.478;2023-02-13T02:51:35;96964.53;;;5.46;100.00
19457;BME280;9867;48.094;11.478;2023-02-13T02:54:08;96974.41;;;5.71;100.00
19457;BME280;9867;48.094;11.478;2023-02-13T02:56:56;96979.50;;;5.82;100.00
19457;BME280;9867;48.094;11.478;2023-02-13T02:59:27;96962.91;;;5.56;100.00
19457;BME280;9867;48.094;11.478;2023-02-13T03:02:14;96965.84;;;5.72;100.00
19457;BME280;9867;48.094;11.478;2023-02-13T03:05:01;96976.22;;;5.60;100.00
19457;BME280;9867;48.094;11.478;2023-02-13T03:07:46;96975.28;;;4.95;100.00
19457;BME280;9867;48.094;11.478;2023-02-13T03:10:16;96964.03;;;4.98;100.00
19457;BME280;9867;48.094;11.478;2023-02-13T03:13:06;96976.53;;;5.12;100.00
19457;BME280;9867;48.094;11.478;2023-02-13T03:15:50;96978.34;;;5.32;100.00
19457;BME280;9867;48.094;11.478;2023-02-13T03:18:34;96975.50;;;4.92;100.00
19457;BME280;9867;48.094;11.478;2023-02-13T03:21:27;96981.94;;;5.30;100.00
19457;BME280;9867;48.094;11.478;2023-02-13T03:24:21;96973.09;;;5.45;100.00
19457;BME280;9867;48.094;11.478;2023-02-13T03:26:55;96972.97;;;5.58;100.00
19457;BME280;9867;48.094;11.478;2023-02-13T03:29:38;96975.22;;;5.29;100.00
19457;BME280;9867;48.094;11.478;2023-02-13T03:32:30;96977.41;;;5.22;100.00
19457;BME280;9867;48.094;11.478;2023-02-13T03:35:12;96969.59;;;4.92;100.00
19457;BME280;9867;48.094;11.478;2023-02-13T03:38:04;96959.66;;;4.77;100.00
19457;BME280;9867;48.094;11.478;2023-02-13T03:40:36;96980.69;;;5.02;100.00
19457;BME280;9867;48.094;11.478;2023-02-13T03:43:26;96977.75;;;4.39;100.00
19457;BME280;9867;48.094;11.478;2023-02-13T03:45:55;96978.19;;;4.33;100.00
19457;BME280;9867;48.094;11.478;2023-02-13T03:48:25;96984.00;;;4.47;100.00
19457;BME280;9867;48.094;11.478;2023-02-13T03:51:15;96988.88;;;4.61;100.00
19457;BME280;9867;48.094;11.478;2023-02-13T03:53:47;96984.91;;;4.34;100.00
19457;BME280;9867;48.094;11.478;2023-02-13T03:56:17;96988.19;;;4.59;100.00
19457;BME280;9867;48.094;11.478;2023-02-13T03:59:05;96992.78;;;4.42;100.00
19457;BME280;9867;48.094;11.478;2023-02-13T04:01:52;96995.13;;;4.68;100.00
19457;BME280;9867;48.094;11.478;2023-02-13T04:04:24;96983.25;;;4.91;100.00
19457;BME280;9867;48.094;11.478;2023-02-13T04:06:56;96987.84;;;4.86;100.00
19457;BME280;9867;48.094;11.478;2023-02-13T04:09:27;96983.47;;;4.88;100.00
19457;BME280;9867;48.094;11.478;2023-02-13T04:11:59;96981.94;;;4.96;100.00
19457;BME280;9867;48.094;11.478;2023-02-13T04:14:33;96995.38;;;5.09;100.00
19457;BME280;9867;48.094;11.478;2023-02-13T04:17:04;96997.78;;;4.66;100.00
19457;BME280;9867;48.094;11.478;2023-02-13T04:19:31;96988.13;;;4.36;100.00
19457;BME280;9867;48.094;11.478;2023-02-13T04:22:00;96995.81;;;4.59;100.00
19457;BME280;9867;48.094;11.478;2023-02-13T04:24:28;96995.31;;;4.42;100.00
19457;BME280;9867;48.094;11.478;2023-02-13T04:26:55;96988.25;;;4.35;100.00
19457;BME280;9867;48.094;11.478;2023-02-13T04:29:22;96993.72;;;4.53;100.00
19457;BME280;9867;48.094;11.478;2023-02-13T04:31:49;96993.72;;;4.75;100.00
19457;BME280;9867;48.094;11.478;2023-02-13T04:34:16;96995.09;;;4.57;100.00
19457;BME280;9867;48.094;11.478;2023-02-13T04:36:42;96999.03;;;4.61;100.00
19457;BME280;9867;48.094;11.478;2023-02-13T04:39:10;96986.41;;;4.37;100.00
19457;BME280;9867;48.094;11.478;2023-02-13T04:41:37;96984.22;;;4.43;100.00
19457;BME280;9867;48.094;11.478;2023-02-13T04:44:04;96988.28;;;4.46;100.00
19457;BME280;9867;48.094;11.478;2023-02-13T04:46:30;96994.50;;;4.42;100.00
19457;BME280;9867;48.094;11.478;2023-02-13T04:48:57;96996.72;;;4.11;100.00
19457;BME280;9867;48.094;11.478;2023-02-13T04:51:23;96991.66;;;4.11;100.00
19457;BME280;9867;48.094;11.478;2023-02-13T04:53:50;97006.69;;;3.91;100.00
19457;BME280;9867;48.094;11.478;2023-02-13T04:56:16;97004.44;;;4.10;100.00
19457;BME280;9867;48.094;11.478;2023-02-13T04:58:46;96995.88;;;4.35;100.00
19457;BME280;9867;48.094;11.478;2023-02-13T05:01:13;97000.00;;;3.90;100.00
19457;BME280;9867;48.094;11.478;2023-02-13T05:03:40;97006.44;;;4.18;100.00
19457;BME280;9867;48.094;11.478;2023-02-13T05:06:07;96998.66;;;4.43;100.00
19457;BME280;9867;48.094;11.478;2023-02-13T05:08:33;96986.69;;;4.67;100.00
19457;BME280;9867;48.094;11.478;2023-02-13T05:11:00;96989.31;;;4.08;100.00
19457;BME280;9867;48.094;11.478;2023-02-13T05:13:26;96990.28;;;4.19;100.00
19457;BME280;9867;48.094;11.478;2023-02-13T05:15:53;96998.41;;;4.24;100.00
19457;BME280;9867;48.094;11.478;2023-02-13T05:18:20;96993.53;;;4.21;100.00
19457;BME280;9867;48.094;11.478;2023-02-13T05:20:46;96998.19;;;4.49;100.00
19457;BME280;9867;48.094;11.478;2023-02-13T05:23:33;96998.94;;;4.73;100.00
19457;BME280;9867;48.094;11.478;2023-02-13T05:25:59;96996.34;;;4.40;100.00
19457;BME280;9867;48.094;11.478;2023-02-13T05:28:26;96990.38;;;4.63;100.00
19457;BME280;9867;48.094;11.478;2023-02-13T05:31:25;96996.75;;;4.69;100.00
19457;BME280;9867;48.094;11.478;2023-02-13T05:33:52;96992.00;;;4.75;100.00
19457;BME280;9867;48.094;11.478;2023-02-13T05:36:18;97002.16;;;4.75;100.00
19457;BME280;9867;48.094;11.478;2023-02-13T05:38:45;97007.09;;;4.55;100.00
19457;BME280;9867;48.094;11.478;2023-02-13T05:41:11;97008.03;;;3.60;100.00
19457;BME280;9867;48.094;11.478;2023-02-13T05:43:38;97010.78;;;3.81;100.00
19457;BME280;9867;48.094;11.478;2023-02-13T05:46:06;97019.31;;;4.03;100.00
19457;BME280;9867;48.094;11.478;2023-02-13T05:48:35;97010.31;;;3.99;100.00
19457;BME280;9867;48.094;11.478;2023-02-13T05:51:02;97006.78;;;4.13;100.00
19457;BME280;9867;48.094;11.478;2023-02-13T05:53:28;97021.91;;;3.67;100.00
19457;BME280;9867;48.094;11.478;2023-02-13T05:55:55;97011.13;;;3.39;100.00
19457;BME280;9867;48.094;11.478;2023-02-13T05:58:22;97012.09;;;3.86;100.00
19457;BME280;9867;48.094;11.478;2023-02-13T06:00:48;97016.41;;;3.97;100.00
19457;BME280;9867;48.094;11.478;2023-02-13T06:03:15;97018.97;;;4.32;100.00
19457;BME280;9867;48.094;11.478;2023-02-13T06:05:42;97024.63;;;4.00;100.00
19457;BME280;9867;48.094;11.478;2023-02-13T06:08:08;97016.75;;;4.27;100.00
19457;BME280;9867;48.094;11.478;2023-02-13T06:10:35;97023.81;;;3.39;100.00
19457;BME280;9867;48.094;11.478;2023-02-13T06:13:01;97027.53;;;4.07;100.00
19457;BME280;9867;48.094;11.478;2023-02-13T06:15:28;97025.47;;;4.12;100.00
19457;BME280;9867;48.094;11.478;2023-02-13T06:17:54;97029.28;;;3.46;100.00
19457;BME280;9867;48.094;11.478;2023-02-13T06:20:21;97028.91;;;3.76;100.00
19457;BME280;9867;48.094;11.478;2023-02-13T06:22:48;97036.75;;;4.32;100.00
19457;BME280;9867;48.094;11.478;2023-02-13T06:25:16;97029.22;;;4.65;100.00
19457;BME280;9867;48.094;11.478;2023-02-13T06:27:42;97040.94;;;4.44;100.00
19457;BME280;9867;48.094;11.478;2023-02-13T06:30:10;97039.22;;;4.44;100.00
19457;BME280;9867;48.094;11.478;2023-02-13T06:32:37;97032.72;;;4.87;100.00
19457;BME280;9867;48.094;11.478;2023-02-13T06:35:03;97040.56;;;5.06;100.00
19457;BME280;9867;48.094;11.478;2023-02-13T06:37:31;97044.78;;;4.26;100.00
19457;BME280;9867;48.094;11.478;2023-02-13T06:39:58;97041.34;;;4.27;100.00
19457;BME280;9867;48.094;11.478;2023-02-13T06:42:25;97051.19;;;4.07;100.00
19457;BME280;9867;48.094;11.478;2023-02-13T06:44:52;97044.13;;;4.81;100.00
19457;BME280;9867;48.094;11.478;2023-02-13T06:47:19;97048.56;;;4.90;100.00
19457;BME280;9867;48.094;11.478;2023-02-13T06:49:45;97042.19;;;4.85;100.00
19457;BME280;9867;48.094;11.478;2023-02-13T06:52:12;97052.72;;;4.91;100.00
19457;BME280;9867;48.094;11.478;2023-02-13T06:54:38;97058.13;;;4.87;100.00
19457;BME280;9867;48.094;11.478;2023-02-13T06:57:14;97057.69;;;5.15;100.00
19457;BME280;9867;48.094;11.478;2023-02-13T06:59:41;97053.88;;;4.52;100.00
19457;BME280;9867;48.094;11.478;2023-02-13T07:02:08;97056.03;;;4.34;100.00
19457;BME280;9867;48.094;11.478;2023-02-13T07:04:34;97062.31;;;4.53;100.00
19457;BME280;9867;48.094;11.478;2023-02-13T07:07:01;97056.91;;;4.46;100.00
19457;BME280;9867;48.094;11.478;2023-02-13T07:09:27;97065.13;;;4.02;100.00
19457;BME280;9867;48.094;11.478;2023-02-13T07:11:54;97067.50;;;4.40;100.00
19457;BME280;9867;48.094;11.478;2023-02-13T07:14:21;97068.25;;;4.29;100.00
19457;BME280;9867;48.094;11.478;2023-02-13T07:16:47;97074.25;;;4.28;100.00
19457;BME280;9867;48.094;11.478;2023-02-13T07:19:14;97080.63;;;4.34;100.00
19457;BME280;9867;48.094;11.478;2023-02-13T07:21:40;97079.09;;;4.55;100.00
19457;BME280;9867;48.094;11.478;2023-02-13T07:24:07;97086.00;;;4.53;100.00
19457;BME280;9867;48.094;11.478;2023-02-13T07:26:33;97083.09;;;4.82;100.00
19457;BME280;9867;48.094;11.478;2023-02-13T07:29:00;97081.78;;;4.65;100.00
19457;BME280;9867;48.094;11.478;2023-02-13T07:31:38;97101.72;;;4.93;100.00
19457;BME280;9867;48.094;11.478;2023-02-13T07:34:05;97090.16;;;5.00;100.00
19457;BME280;9867;48.094;11.478;2023-02-13T07:36:31;97082.44;;;5.13;100.00
19457;BME280;9867;48.094;11.478;2023-02-13T07:38:58;97087.50;;;5.69;100.00
19457;BME280;9867;48.094;11.478;2023-02-13T07:41:24;97084.03;;;5.03;100.00
19457;BME280;9867;48.094;11.478;2023-02-13T07:43:51;97092.59;;;4.44;100.00
19457;BME280;9867;48.094;11.478;2023-02-13T07:46:18;97104.91;;;4.73;100.00
19457;BME280;9867;48.094;11.478;2023-02-13T07:48:45;97094.84;;;4.36;100.00
19457;BME280;9867;48.094;11.478;2023-02-13T07:51:11;97096.78;;;4.33;100.00
19457;BME280;9867;48.094;11.478;2023-02-13T07:53:38;97103.19;;;4.15;100.00
19457;BME280;9867;48.094;11.478;2023-02-13T07:56:05;97104.19;;;3.88;100.00
19457;BME280;9867;48.094;11.478;2023-02-13T07:58:31;97107.72;;;3.98;100.00
19457;BME280;9867;48.094;11.478;2023-02-13T08:00:58;97113.09;;;3.70;100.00
19457;BME280;9867;48.094;11.478;2023-02-13T08:03:24;97113.13;;;3.81;100.00
19457;BME280;9867;48.094;11.478;2023-02-13T08:05:51;97116.63;;;3.67;100.00
19457;BME280;9867;48.094;11.478;2023-02-13T08:08:18;97112.13;;;5.01;100.00
19457;BME280;9867;48.094;11.478;2023-02-13T08:10:44;97116.19;;;4.34;100.00
19457;BME280;9867;48.094;11.478;2023-02-13T08:13:29;97123.25;;;5.11;100.00
19457;BME280;9867;48.094;11.478;2023-02-13T08:15:55;97113.28;;;4.86;100.00
19457;BME280;9867;48.094;11.478;2023-02-13T08:18:22;97119.44;;;4.95;100.00
19457;BME280;9867;48.094;11.478;2023-02-13T08:20:48;97119.84;;;3.82;100.00
19457;BME280;9867;48.094;11.478;2023-02-13T08:23:16;97121.16;;;3.00;100.00
19457;BME280;9867;48.094;11.478;2023-02-13T08:25:42;97104.06;;;2.25;100.00
19457;BME280;9867;48.094;11.478;2023-02-13T08:28:09;97113.56;;;1.94;100.00
19457;BME280;9867;48.094;11.478;2023-02-13T08:30:35;97109.66;;;1.62;100.00
19457;BME280;9867;48.094;11.478;2023-02-13T08:33:02;97107.53;;;1.42;100.00
19457;BME280;9867;48.094;11.478;2023-02-13T08:35:28;97093.44;;;1.38;100.00
19457;BME280;9867;48.094;11.478;2023-02-13T08:37:56;97095.88;;;1.39;100.00
19457;BME280;9867;48.094;11.478;2023-02-13T08:40:23;97087.81;;;1.47;100.00
19457;BME280;9867;48.094;11.478;2023-02-13T08:42:51;97096.44;;;1.71;100.00
19457;BME280;9867;48.094;11.478;2023-02-13T08:45:18;97096.84;;;1.65;100.00
19457;BME280;9867;48.094;11.478;2023-02-13T08:47:44;97086.41;;;1.69;100.00
19457;BME280;9867;48.094;11.478;2023-02-13T08:50:11;97088.09;;;1.56;100.00
19457;BME280;9867;48.094;11.478;2023-02-13T08:52:37;97088.00;;;1.44;100.00
19457;BME280;9867;48.094;11.478;2023-02-13T08:55:04;97099.56;;;1.05;100.00
19457;BME280;9867;48.094;11.478;2023-02-13T08:57:31;97082.34;;;1.40;100.00
19457;BME280;9867;48.094;11.478;2023-02-13T08:59:57;97091.97;;;1.62;100.00
19457;BME280;9867;48.094;11.478;2023-02-13T09:02:24;97085.78;;;1.80;100.00
19457;BME280;9867;48.094;11.478;2023-02-13T09:04:50;97096.16;;;1.76;100.00
19457;BME280;9867;48.094;11.478;2023-02-13T09:07:17;97100.97;;;1.80;100.00
19457;BME280;9867;48.094;11.478;2023-02-13T09:09:43;97098.88;;;1.87;100.00
19457;BME280;9867;48.094;11.478;2023-02-13T09:12:10;97100.91;;;1.94;100.00
19457;BME280;9867;48.094;11.478;2023-02-13T09:14:37;97106.31;;;2.02;100.00
19457;BME280;9867;48.094;11.478;2023-02-13T09:17:04;97106.38;;;1.88;100.00
19457;BME280;9867;48.094;11.478;2023-02-13T09:19:31;97107.56;;;2.10;100.00
19457;BME280;9867;48.094;11.478;2023-02-13T09:21:57;97120.69;;;2.02;100.00
19457;BME280;9867;48.094;11.478;2023-02-13T09:24:24;97117.31;;;1.89;100.00
19457;BME280;9867;48.094;11.478;2023-02-13T09:26:50;97122.16;;;1.92;100.00
19457;BME280;9867;48.094;11.478;2023-02-13T09:29:17;97112.03;;;1.92;100.00
19457;BME280;9867;48.094;11.478;2023-02-13T09:31:44;97119.63;;;1.92;100.00
19457;BME280;9867;48.094;11.478;2023-02-13T09:34:10;97118.91;;;2.17;100.00
19457;BME280;9867;48.094;11.478;2023-02-13T09:36:37;97111.66;;;1.98;100.00
19457;BME280;9867;48.094;11.478;2023-02-13T09:39:03;97112.94;;;1.91;100.00
19457;BME280;9867;48.094;11.478;2023-02-13T09:41:33;97117.00;;;1.93;100.00
19457;BME280;9867;48.094;11.478;2023-02-13T09:44:04;97110.91;;;1.69;100.00
19457;BME280;9867;48.094;11.478;2023-02-13T09:46:34;97109.09;;;1.85;100.00
19457;BME280;9867;48.094;11.478;2023-02-13T09:49:06;97114.63;;;2.04;100.00
19457;BME280;9867;48.094;11.478;2023-02-13T09:51:34;97111.31;;;2.17;100.00
19457;BME280;9867;48.094;11.478;2023-02-13T09:54:02;97109.78;;;2.14;100.00
19457;BME280;9867;48.094;11.478;2023-02-13T09:56:43;97112.03;;;2.19;100.00
19457;BME280;9867;48.094;11.478;2023-02-13T09:59:30;97118.47;;;2.37;100.00
19457;BME280;9867;48.094;11.478;2023-02-13T10:02:01;97113.38;;;2.51;100.00
19457;BME280;9867;48.094;11.478;2023-02-13T10:04:41;97116.09;;;2.48;100.00
19457;BME280;9867;48.094;11.478;2023-02-13T10:07:18;97119.97;;;2.66;100.00
19457;BME280;9867;48.094;11.478;2023-02-13T10:09:51;97119.78;;;2.57;100.00
19457;BME280;9867;48.094;11.478;2023-02-13T10:12:27;97117.34;;;2.55;100.00
19457;BME280;9867;48.094;11.478;2023-02-13T10:15:14;97122.97;;;2.46;100.00
19457;BME280;9867;48.094;11.478;2023-02-13T10:17:43;97119.78;;;2.57;100.00
19457;BME280;9867;48.094;11.478;2023-02-13T10:20:21;97125.06;;;2.39;100.00
19457;BME280;9867;48.094;11.478;2023-02-13T10:22:52;97101.19;;;2.44;100.00
19457;BME280;9867;48.094;11.478;2023-02-13T10:25:23;97118.44;;;2.51;100.00
19457;BME280;9867;48.094;11.478;2023-02-13T10:27:53;97105.94;;;2.35;100.00
19457;BME280;9867;48.094;11.478;2023-02-13T10:30:23;97119.41;;;2.36;100.00
19457;BME280;9867;48.094;11.478;2023-02-13T10:32:56;97113.13;;;2.15;100.00
19457;BME280;9867;48.094;11.478;2023-02-13T10:35:40;97105.53;;;2.42;100.00
19457;BME280;9867;48.094;11.478;2023-02-13T10:38:14;97106.34;;;2.42;100.00
19457;BME280;9867;48.094;11.478;2023-02-13T10:40:50;97107.66;;;2.35;100.00
19457;BME280;9867;48.094;11.478;2023-02-13T10:43:20;97108.06;;;2.15;100.00
19457;BME280;9867;48.094;11.478;2023-02-13T10:45:58;97098.72;;;2.29;100.00
19457;BME280;9867;48.094;11.478;2023-02-13T10:48:55;97099.00;;;2.25;100.00
19457;BME280;9867;48.094;11.478;2023-02-13T10:51:29;97098.66;;;2.44;100.00
19457;BME280;9867;48.094;11.478;2023-02-13T10:54:23;97101.44;;;2.26;100.00
19457;BME280;9867;48.094;11.478;2023-02-13T10:57:00;97097.88;;;2.56;100.00
19457;BME280;9867;48.094;11.478;2023-02-13T10:59:43;97096.88;;;2.71;100.00
19457;BME280;9867;48.094;11.478;2023-02-13T11:02:21;97095.16;;;2.84;100.00
19457;BME280;9867;48.094;11.478;2023-02-13T11:04:49;97094.25;;;2.60;100.00
19457;BME280;9867;48.094;11.478;2023-02-13T11:07:18;97095.53;;;2.53;100.00
19457;BME280;9867;48.094;11.478;2023-02-13T11:09:48;97091.81;;;2.71;100.00
19457;BME280;9867;48.094;11.478;2023-02-13T11:12:26;97085.34;;;2.80;100.00
19457;BME280;9867;48.094;11.478;2023-02-13T11:14:55;97085.34;;;2.92;100.00
19457;BME280;9867;48.094;11.478;2023-02-13T11:17:22;97084.75;;;3.01;100.00
19457;BME280;9867;48.094;11.478;2023-02-13T11:19:51;97080.88;;;2.96;100.00
19457;BME280;9867;48.094;11.478;2023-02-13T11:22:29;97075.69;;;2.85;100.00
19457;BME280;9867;48.094;11.478;2023-02-13T11:24:59;97084.22;;;2.71;100.00
19457;BME280;9867;48.094;11.478;2023-02-13T11:27:30;97079.84;;;2.73;100.00
19457;BME280;9867;48.094;11.478;2023-02-13T11:29:58;97083.31;;;2.72;100.00
19457;BME280;9867;48.094;11.478;2023-02-13T11:32:28;97075.31;;;2.78;100.00
19457;BME280;9867;48.094;11.478;2023-02-13T11:34:55;97069.13;;;2.95;100.00
19457;BME280;9867;48.094;11.478;2023-02-13T11:37:24;97081.00;;;3.07;100.00
19457;BME280;9867;48.094;11.478;2023-02-13T11:39:53;97076.50;;;3.11;100.00
19457;BME280;9867;48.094;11.478;2023-02-13T11:42:24;97078.75;;;3.28;100.00
19457;BME280;9867;48.094;11.478;2023-02-13T11:44:54;97079.06;;;2.98;100.00
19457;BME280;9867;48.094;11.478;2023-02-13T11:47:34;97082.50;;;2.71;100.00
19457;BME280;9867;48.094;11.478;2023-02-13T11:50:01;97076.94;;;2.79;100.00
19457;BME280;9867;48.094;11.478;2023-02-13T11:52:30;97073.06;;;2.86;100.00
19457;BME280;9867;48.094;11.478;2023-02-13T11:55:00;97079.84;;;2.86;100.00
19457;BME280;9867;48.094;11.478;2023-02-13T11:57:32;97081.19;;;3.04;100.00
19457;BME280;9867;48.094;11.478;2023-02-13T12:00:18;97080.47;;;3.27;100.00
19457;BME280;9867;48.094;11.478;2023-02-13T12:03:27;97082.72;;;3.19;100.00
19457;BME280;9867;48.094;11.478;2023-02-13T12:05:59;97076.81;;;3.19;100.00
19457;BME280;9867;48.094;11.478;2023-02-13T12:08:27;97068.69;;;3.39;100.00
19457;BME280;9867;48.094;11.478;2023-02-13T12:10:55;97082.31;;;3.62;100.00
19457;BME280;9867;48.094;11.478;2023-02-13T12:13:26;97081.09;;;3.67;100.00
19457;BME280;9867;48.094;11.478;2023-02-13T12:15:59;97078.97;;;3.61;100.00
19457;BME280;9867;48.094;11.478;2023-02-13T12:18:31;97077.47;;;3.95;100.00
19457;BME280;9867;48.094;11.478;2023-02-13T12:21:07;97084.28;;;3.95;100.00
19457;BME280;9867;48.094;11.478;2023-02-13T12:23:43;97080.84;;;3.83;100.00
19457;BME280;9867;48.094;11.478;2023-02-13T12:26:24;97068.94;;;3.60;100.00
19457;BME280;9867;48.094;11.478;2023-02-13T12:29:06;97056.47;;;3.81;100.00
19457;BME280;9867;48.094;11.478;2023-02-13T12:31:47;97066.63;;;3.81;100.00
19457;BME280;9867;48.094;11.478;2023-02-13T12:37:32;97059.59;;;3.97;100.00
19457;BME280;9867;48.094;11.478;2023-02-13T12:40:16;97055.63;;;3.93;100.00
19457;BME280;9867;48.094;11.478;2023-02-13T12:43:01;97057.25;;;3.94;100.00
19457;BME280;9867;48.094;11.478;2023-02-13T12:45:40;97041.25;;;3.81;100.00
19457;BME280;9867;48.094;11.478;2023-02-13T12:48:17;97037.88;;;3.93;100.00
19457;BME280;9867;48.094;11.478;2023-02-13T12:51:01;97043.44;;;3.98;100.00
19457;BME280;9867;48.094;11.478;2023-02-13T12:53:42;97036.88;;;4.06;100.00
19457;BME280;9867;48.094;11.478;2023-02-13T12:56:37;97036.63;;;3.98;100.00
19457;BME280;9867;48.094;11.478;2023-02-13T12:59:15;97020.78;;;3.95;100.00
19457;BME280;9867;48.094;11.478;2023-02-13T13:01:58;97033.59;;;3.69;100.00
19457;BME280;9867;48.094;11.478;2023-02-13T13:04:41;97038.72;;;3.81;100.00
19457;BME280;9867;48.094;11.478;2023-02-13T13:07:23;97035.72;;;3.99;100.00
19457;BME280;9867;48.094;11.478;2023-02-13T13:10:17;97035.59;;;4.01;100.00
19457;BME280;9867;48.094;11.478;2023-02-13T13:12:55;97026.78;;;3.94;100.00
19457;BME280;9867;48.094;11.478;2023-02-13T13:15:33;97027.47;;;4.20;100.00
19457;BME280;9867;48.094;11.478;2023-02-13T13:18:20;97030.34;;;3.67;100.00
19457;BME280;9867;48.094;11.478;2023-02-13T13:21:10;97034.91;;;3.99;100.00
19457;BME280;9867;48.094;11.478;2023-02-13T13:23:43;97038.19;;;4.12;100.00
19457;BME280;9867;48.094;11.478;2023-02-13T13:26:19;97037.44;;;3.99;100.00
19457;BME280;9867;48.094;11.478;2023-02-13T13:28:53;97047.19;;;4.16;100.00